Time;durP1;ratioP1;P1;durP2;ratioP2;P2;SDS_P1;SDS_P2;PMS_P1;PMS_P2;Temp;Humidity;BMP_temperature;BMP_pressure;BME280_temperature;BME280_humidity;BME280_pressure;Samples;Min_cycle;Max_cycle;Signal;HPM_P1;HPM_P2
2023/10/22 00:02:26;;;;;;;10.43;3.13;;;;;;;22.93;50.56;94542.00;5070989;28;20198;-46
2023/10/22 00:04:53;;;;;;;12.75;3.78;;;;;;;22.91;50.58;94509.31;5071316;28;20677;-45
2023/10/22 00:07:20;;;;;;;7.90;3.20;;;;;;;22.82;51.83;94508.00;5070395;28;20198;-44
2023/10/22 00:09:47;;;;;;;12.52;3.67;;;;;;;22.78;51.31;94518.06;5070008;28;20193;-45
2023/10/22 00:12:15;;;;;;;11.15;3.78;;;;;;;22.73;51.71;94516.09;5069426;28;20182;-44
2023/10/22 00:14:42;;;;;;;8.18;3.60;;;;;;;22.68;51.24;94491.69;5068424;28;20187;-44
2023/10/22 00:17:09;;;;;;;10.60;3.33;;;;;;;22.64;51.48;94498.34;5069334;28;20201;-45
2023/10/22 00:19:35;;;;;;;9.95;3.20;;;;;;;22.49;51.23;94485.66;5069968;28;20206;-44
2023/10/22 00:22:02;;;;;;;9.15;2.92;;;;;;;22.62;50.86;94493.34;5069362;28;20661;-46
2023/10/22 00:24:29;;;;;;;11.85;3.38;;;;;;;22.61;50.87;94485.75;5069425;28;20194;-45
2023/10/22 00:26:56;;;;;;;8.65;3.45;;;;;;;22.59;50.73;94493.00;5069751;28;20255;-46
2023/10/22 00:29:24;;;;;;;5.93;3.05;;;;;;;22.41;50.67;94472.91;5070464;28;20183;-48
2023/10/22 00:31:51;;;;;;;8.05;3.30;;;;;;;22.53;50.62;94482.41;5073748;28;20774;-45
2023/10/22 00:34:18;;;;;;;5.78;2.72;;;;;;;22.50;49.30;94482.06;5070076;28;20216;-48
2023/10/22 00:36:44;;;;;;;7.03;3.38;;;;;;;22.49;49.57;94491.66;5072706;28;20189;-45
2023/10/22 00:39:11;;;;;;;9.15;3.20;;;;;;;22.54;48.55;94491.84;5069477;28;20194;-44
2023/10/22 00:41:38;;;;;;;11.27;2.72;;;;;;;22.55;48.62;94479.59;5069110;28;20194;-45
2023/10/22 00:44:05;;;;;;;8.55;2.80;;;;;;;22.55;49.06;94505.66;5072109;28;20189;-44
2023/10/22 00:46:34;;;;;;;6.80;3.13;;;;;;;22.51;48.80;94487.06;5077657;28;20759;-45
2023/10/22 00:49:02;;;;;;;5.30;2.95;;;;;;;22.54;48.83;94488.44;5082457;28;20182;-44
2023/10/22 00:51:29;;;;;;;12.88;3.35;;;;;;;22.49;48.82;94491.66;5071817;28;20324;-45
2023/10/22 00:53:56;;;;;;;9.20;3.17;;;;;;;22.49;47.37;94486.47;5068907;28;20202;-45
2023/10/22 00:56:23;;;;;;;8.45;2.85;;;;;;;22.51;47.28;94481.84;5069220;28;20205;-45
2023/10/22 00:58:51;;;;;;;10.15;3.25;;;;;;;22.54;47.39;94465.78;5068643;28;20679;-44
2023/10/22 01:01:19;;;;;;;13.07;3.30;;;;;;;22.54;47.32;94473.59;5068790;28;20191;-45
2023/10/22 01:03:47;;;;;;;10.05;3.20;;;;;;;22.63;47.06;94479.31;5068480;28;20194;-44
2023/10/22 01:06:14;;;;;;;10.35;2.75;;;;;;;22.59;46.92;94480.75;5069120;28;20647;-45
2023/10/22 01:08:42;;;;;;;13.65;3.20;;;;;;;22.64;46.64;94477.50;5068911;28;20197;-44
2023/10/22 01:11:10;;;;;;;5.07;2.35;;;;;;;22.67;46.69;94479.69;5069011;28;20226;-45
2023/10/22 01:13:37;;;;;;;10.85;2.72;;;;;;;22.61;46.49;94490.97;5069314;28;20260;-45
2023/10/22 01:16:06;;;;;;;12.30;3.30;;;;;;;22.41;45.21;94436.44;5068649;28;20491;-44
2023/10/22 01:18:33;;;;;;;8.65;3.38;;;;;;;22.75;45.04;94495.00;5068641;28;20236;-44
2023/10/22 01:21:02;;;;;;;9.18;3.35;;;;;;;22.82;44.88;94479.31;5068913;28;20554;-44
2023/10/22 01:23:30;;;;;;;7.63;3.13;;;;;;;22.82;45.00;94495.75;5069075;28;20187;-44
2023/10/22 01:25:57;;;;;;;10.10;2.90;;;;;;;22.89;44.96;94472.22;5068608;28;20206;-44
2023/10/22 01:28:24;;;;;;;18.35;3.72;;;;;;;22.92;44.87;94479.59;5068651;28;20229;-43
2023/10/22 01:30:49;;;;;;;9.23;3.60;;;;;;;22.92;44.69;94463.97;5068569;28;20218;-45
2023/10/22 01:33:16;;;;;;;11.80;3.22;;;;;;;22.93;44.08;94461.16;5069069;28;20194;-44
2023/10/22 01:35:43;;;;;;;4.95;2.05;;;;;;;22.94;44.10;94452.31;5071442;28;20190;-45
2023/10/22 01:38:11;;;;;;;20.75;3.17;;;;;;;22.97;44.08;94470.13;5072626;28;20182;-44
2023/10/22 01:40:39;;;;;;;11.63;3.25;;;;;;;22.95;44.13;94479.19;5071842;28;20205;-44
2023/10/22 01:43:06;;;;;;;16.83;3.75;;;;;;;23.02;44.00;94479.91;5072082;28;20190;-44
2023/10/22 01:45:33;;;;;;;16.83;7.05;;;;;;;23.03;44.10;94473.66;5072082;28;20183;-45
2023/10/22 01:47:59;;;;;;;6.47;3.97;;;;;;;22.96;44.41;94457.28;5071974;28;20232;-44
2023/10/22 01:50:26;;;;;;;17.48;5.85;;;;;;;23.03;44.44;94473.66;5071906;28;20658;-45
2023/10/22 01:52:53;;;;;;;14.30;5.20;;;;;;;22.99;44.32;94481.13;5072005;28;20205;-45
2023/10/22 01:55:20;;;;;;;18.17;4.00;;;;;;;22.98;44.58;94478.75;5072041;28;20195;-44
2023/10/22 01:57:48;;;;;;;13.55;3.85;;;;;;;22.93;44.96;94471.59;5071846;28;20194;-44
2023/10/22 02:00:17;;;;;;;12.40;3.75;;;;;;;22.96;45.08;94488.59;5071873;28;20194;-44
2023/10/22 02:02:43;;;;;;;4.82;3.22;;;;;;;22.92;45.35;94477.00;5071894;28;20273;-43
2023/10/22 02:05:10;;;;;;;17.92;3.40;;;;;;;22.90;46.51;94463.41;5071934;28;20190;-44
2023/10/22 02:07:38;;;;;;;8.55;4.38;;;;;;;22.62;46.60;94443.03;5071461;28;20210;-44
2023/10/22 02:10:08;;;;;;;6.85;3.22;;;;;;;22.74;46.67;94457.72;5071430;28;20198;-44
2023/10/22 02:12:35;;;;;;;6.70;3.47;;;;;;;22.63;47.08;94452.47;5071599;28;20319;-44
2023/10/22 02:15:04;;;;;;;8.48;3.10;;;;;;;22.58;47.57;94471.31;5071496;28;20186;-45
2023/10/22 02:17:31;;;;;;;8.15;3.60;;;;;;;22.41;47.69;94442.47;5071099;28;20636;-44
2023/10/22 02:19:57;;;;;;;8.15;2.90;;;;;;;22.51;48.16;94476.63;5071500;28;20208;-45
2023/10/22 02:22:24;;;;;;;14.63;3.17;;;;;;;22.42;48.39;94464.09;5071248;28;20182;-44
2023/10/22 02:24:51;;;;;;;9.80;3.58;;;;;;;22.41;48.81;94489.38;5071770;28;20190;-44
2023/10/22 02:27:18;;;;;;;8.27;2.72;;;;;;;21.78;48.77;94351.50;5071028;28;20230;-44
2023/10/22 02:29:45;;;;;;;8.75;3.33;;;;;;;22.27;48.94;94446.19;5070895;28;20190;-44
2023/10/22 02:32:13;;;;;;;18.00;4.35;;;;;;;22.23;47.66;94443.22;5071356;28;20226;-48
2023/10/22 02:34:40;;;;;;;10.70;3.38;;;;;;;22.07;47.20;94416.94;5070997;28;20194;-44
2023/10/22 02:37:06;;;;;;;7.50;2.90;;;;;;;22.24;46.89;94450.06;5070910;28;20191;-46
2023/10/22 02:39:33;;;;;;;14.85;3.65;;;;;;;22.25;46.40;94430.78;5070573;28;20213;-44
2023/10/22 02:42:00;;;;;;;13.73;2.85;;;;;;;22.31;46.41;94433.53;5071115;28;20191;-44
2023/10/22 02:44:27;;;;;;;13.63;3.30;;;;;;;22.34;46.08;94449.56;5070492;28;20194;-45
2023/10/22 02:46:54;;;;;;;10.57;3.33;;;;;;;22.41;45.68;94459.88;5071081;28;20604;-44
2023/10/22 02:49:23;;;;;;;10.85;2.78;;;;;;;22.48;45.60;94458.03;5070680;28;20217;-43
2023/10/22 02:51:50;;;;;;;11.88;3.40;;;;;;;22.48;45.89;94460.63;5070575;28;20217;-43
2023/10/22 02:54:16;;;;;;;10.23;2.92;;;;;;;22.52;45.72;94457.38;5070450;28;20198;-43
2023/10/22 02:56:43;;;;;;;10.35;3.25;;;;;;;22.54;45.61;94459.78;5070758;28;20347;-46
2023/10/22 02:59:11;;;;;;;9.85;3.28;;;;;;;22.56;45.44;94455.13;5070109;28;20202;-44
2023/10/22 03:01:38;;;;;;;8.13;3.15;;;;;;;22.60;45.45;94463.31;5070595;28;20205;-44
2023/10/22 03:04:05;;;;;;;14.90;3.58;;;;;;;22.59;46.20;94451.31;5070311;28;20673;-44
2023/10/22 03:06:33;;;;;;;11.27;3.42;;;;;;;22.53;46.29;94471.97;5070472;28;20585;-45
2023/10/22 03:09:00;;;;;;;13.32;3.95;;;;;;;22.48;46.85;94453.59;5070505;28;20190;-44
2023/10/22 03:11:27;;;;;;;12.60;3.60;;;;;;;22.39;47.07;94441.09;5071979;28;20206;-43
2023/10/22 03:13:54;;;;;;;10.98;2.92;;;;;;;22.32;47.01;94442.94;5070884;28;20185;-43
2023/10/22 03:16:20;;;;;;;12.80;3.40;;;;;;;22.30;47.21;94440.56;5070402;28;20504;-45
2023/10/22 03:18:48;;;;;;;16.27;3.40;;;;;;;22.25;47.48;94443.03;5070492;28;20289;-44
2023/10/22 03:21:17;;;;;;;6.57;2.88;;;;;;;22.23;47.14;94445.03;5070159;28;20198;-43
2023/10/22 03:23:45;;;;;;;11.02;3.15;;;;;;;22.19;47.17;94434.28;5070325;28;20190;-43
2023/10/22 03:26:15;;;;;;;9.43;3.30;;;;;;;22.18;47.89;94444.91;5069622;28;20194;-44
2023/10/22 03:28:42;;;;;;;11.98;3.53;;;;;;;22.08;49.26;94437.56;5070332;28;20190;-44
2023/10/22 03:31:09;;;;;;;9.35;3.00;;;;;;;22.02;50.99;94438.38;5068379;28;20592;-45
2023/10/22 03:33:37;;;;;;;9.70;3.78;;;;;;;21.90;51.02;94443.53;5070102;28;20182;-44
2023/10/22 03:36:04;;;;;;;9.05;3.28;;;;;;;21.80;51.69;94445.78;5069575;28;20206;-44
2023/10/22 03:38:32;;;;;;;10.05;3.60;;;;;;;21.75;53.17;94425.59;5070070;28;20686;-44
2023/10/22 03:41:02;;;;;;;12.88;4.40;;;;;;;21.63;53.28;94449.94;5070101;28;20198;-44
2023/10/22 03:43:29;;;;;;;14.15;4.20;;;;;;;21.56;53.69;94431.00;5069625;28;20202;-44
2023/10/22 03:45:56;;;;;;;15.65;4.28;;;;;;;21.45;54.10;94441.06;5070110;28;20209;-44
2023/10/22 03:48:23;;;;;;;7.40;3.78;;;;;;;21.38;54.54;94447.34;5069320;28;20667;-44
2023/10/22 03:50:50;;;;;;;10.93;3.53;;;;;;;21.30;55.05;94428.31;5069717;28;20198;-45
2023/10/22 03:53:16;;;;;;;9.93;3.63;;;;;;;21.32;54.92;94461.16;5069205;28;20218;-44
2023/10/22 03:55:43;;;;;;;11.20;3.90;;;;;;;21.27;55.06;94444.34;5069407;28;20252;-44
2023/10/22 03:58:12;;;;;;;8.30;3.35;;;;;;;21.23;56.29;94444.97;5069242;28;20584;-44
2023/10/22 04:00:39;;;;;;;11.98;3.95;;;;;;;21.18;56.18;94450.00;5069802;28;20576;-44
2023/10/22 04:03:06;;;;;;;10.48;3.45;;;;;;;21.12;56.74;94443.84;5069354;28;20741;-45
2023/10/22 04:05:33;;;;;;;14.07;3.92;;;;;;;21.02;56.87;94451.28;5069507;28;20191;-44
2023/10/22 04:08:01;;;;;;;9.25;3.90;;;;;;;21.00;57.19;94453.31;5069290;28;20190;-44
2023/10/22 04:10:27;;;;;;;6.32;3.55;;;;;;;20.95;57.39;94453.94;5069755;28;20217;-44
2023/10/22 04:12:54;;;;;;;13.40;4.10;;;;;;;20.89;57.48;94457.34;5069292;28;20222;-43
2023/10/22 04:15:23;;;;;;;11.32;3.95;;;;;;;20.87;58.03;94442.97;5069554;28;20656;-44
2023/10/22 04:17:49;;;;;;;10.98;3.58;;;;;;;20.77;58.24;94453.81;5069069;28;20190;-44
2023/10/22 04:20:17;;;;;;;9.23;5.03;;;;;;;20.71;58.54;94439.03;5069093;28;20685;-45
2023/10/22 04:22:44;;;;;;;9.80;3.20;;;;;;;20.70;58.58;94459.03;5069174;28;20190;-44
2023/10/22 04:25:11;;;;;;;16.45;4.30;;;;;;;20.66;58.70;94452.66;5068719;28;20255;-44
2023/10/22 04:27:38;;;;;;;11.00;3.70;;;;;;;20.60;58.95;94466.47;5068984;28;20241;-43
2023/10/22 04:30:07;;;;;;;10.88;3.40;;;;;;;20.52;58.90;94484.88;5068880;28;20634;-45
2023/10/22 04:32:36;;;;;;;7.65;3.47;;;;;;;20.50;58.92;94487.66;5068896;28;20225;-45
2023/10/22 04:35:05;;;;;;;11.35;3.58;;;;;;;20.45;58.98;94491.84;5069039;28;20190;-44
2023/10/22 04:37:32;;;;;;;12.20;4.33;;;;;;;20.43;59.61;94486.09;5069298;28;20300;-44
2023/10/22 04:39:59;;;;;;;12.23;5.20;;;;;;;20.36;59.78;94493.06;5069008;28;20205;-44
2023/10/22 04:42:26;;;;;;;9.43;4.05;;;;;;;20.32;59.77;94499.69;5069254;28;20213;-43
2023/10/22 04:44:53;;;;;;;12.85;5.05;;;;;;;20.28;59.88;94494.88;5068911;28;20198;-44
2023/10/22 04:47:20;;;;;;;13.43;3.77;;;;;;;20.19;59.93;94503.88;5068998;28;20194;-45
2023/10/22 04:49:51;;;;;;;8.40;3.92;;;;;;;20.16;60.60;94508.66;5069121;28;20194;-44
2023/10/22 04:52:22;;;;;;;13.98;4.22;;;;;;;20.19;60.51;94522.06;5069039;28;20233;-44
2023/10/22 04:54:49;;;;;;;6.17;3.53;;;;;;;20.16;61.30;94522.44;5068804;28;20733;-44
2023/10/22 04:57:17;;;;;;;11.05;4.63;;;;;;;20.09;60.93;94532.06;5069393;28;20198;-44
2023/10/22 04:59:44;;;;;;;9.05;4.38;;;;;;;20.02;61.27;94526.84;5070287;28;20194;-45
2023/10/22 05:02:11;;;;;;;16.88;5.28;;;;;;;19.98;61.31;94527.44;5071312;28;20609;-44
2023/10/22 05:04:38;;;;;;;12.35;5.65;;;;;;;20.03;61.85;94523.28;5073961;28;20669;-44
2023/10/22 05:07:06;;;;;;;9.48;4.38;;;;;;;20.01;62.03;94546.03;5077279;28;20252;-45
2023/10/22 05:09:33;;;;;;;8.13;3.95;;;;;;;19.99;62.89;94531.63;5069704;28;20248;-45
2023/10/22 05:12:00;;;;;;;18.40;9.30;;;;;;;19.93;62.57;94522.84;5072693;28;20226;-44
2023/10/22 05:14:27;;;;;;;14.53;4.63;;;;;;;19.92;63.58;94530.84;5072791;28;20182;-45
2023/10/22 05:16:53;;;;;;;6.93;3.87;;;;;;;19.88;63.54;94521.88;5072182;28;20191;-45
2023/10/22 05:19:20;;;;;;;14.57;4.67;;;;;;;19.87;63.61;94543.63;5072393;28;20204;-45
2023/10/22 05:21:47;;;;;;;8.90;3.78;;;;;;;19.82;64.15;94501.88;5072406;28;20198;-44
2023/10/22 05:24:17;;;;;;;16.30;4.57;;;;;;;19.74;64.75;94521.06;5072366;28;20191;-43
2023/10/22 05:26:44;;;;;;;14.77;5.37;;;;;;;19.50;64.87;94502.44;5072105;28;20624;-45
2023/10/22 05:29:12;;;;;;;14.40;5.20;;;;;;;19.69;64.99;94515.66;5072582;28;20190;-44
2023/10/22 05:31:38;;;;;;;8.53;4.33;;;;;;;19.68;65.08;94535.59;5071898;28;20214;-44
2023/10/22 05:34:05;;;;;;;7.30;3.93;;;;;;;19.67;65.00;94512.47;5072357;28;20195;-43
2023/10/22 05:36:32;;;;;;;11.37;4.10;;;;;;;19.63;65.40;94526.81;5072271;28;20197;-44
2023/10/22 05:39:00;;;;;;;13.90;4.20;;;;;;;19.60;66.18;94515.00;5072627;28;20193;-48
2023/10/22 05:41:29;;;;;;;9.90;4.90;;;;;;;19.59;66.09;94517.81;5072237;28;20190;-45
2023/10/22 05:43:59;;;;;;;7.07;4.87;;;;;;;19.51;66.52;94513.59;5072566;28;20194;-45
2023/10/22 05:46:26;;;;;;;8.93;4.23;;;;;;;19.59;66.79;94541.16;5077025;28;20210;-45
2023/10/22 05:48:53;;;;;;;14.87;4.43;;;;;;;19.58;66.59;94557.72;5076735;28;20679;-44
2023/10/22 05:51:20;;;;;;;8.70;4.73;;;;;;;19.53;66.90;94525.38;5071630;28;20205;-49
2023/10/22 05:53:46;;;;;;;11.83;5.00;;;;;;;19.51;67.20;94549.91;5071519;28;20218;-44
2023/10/22 05:56:13;;;;;;;12.03;4.47;;;;;;;19.52;67.27;94549.75;5071534;28;20576;-44
2023/10/22 05:58:42;;;;;;;11.90;4.80;;;;;;;19.50;67.35;94550.91;5071489;28;20223;-45
2023/10/22 06:01:10;;;;;;;12.47;4.97;;;;;;;19.37;67.79;94533.53;5071908;28;20191;-44
2023/10/22 06:03:37;;;;;;;14.33;4.40;;;;;;;19.47;67.53;94565.09;5071383;28;20646;-45
2023/10/22 06:06:04;;;;;;;11.33;4.63;;;;;;;19.53;67.62;94592.03;5071548;28;20195;-44
2023/10/22 06:08:30;;;;;;;6.80;4.30;;;;;;;19.50;67.56;94582.84;5071592;28;20214;-45
2023/10/22 06:10:57;;;;;;;16.20;5.40;;;;;;;19.51;68.67;94527.38;5071670;28;20198;-46
2023/10/22 06:13:24;;;;;;;10.70;4.43;;;;;;;19.48;68.90;94600.41;5071549;28;20213;-44
2023/10/22 06:15:57;;;;;;;9.23;4.60;;;;;;;19.37;68.98;94595.75;5072018;28;20182;-44
2023/10/22 06:18:24;;;;;;;11.27;4.07;;;;;;;19.35;69.21;94608.16;5071857;28;20186;-44
2023/10/22 06:20:51;;;;;;;11.90;4.53;;;;;;;19.17;69.70;94590.53;5071026;28;20186;-45
2023/10/22 06:23:18;;;;;;;11.60;5.07;;;;;;;19.27;70.08;94587.56;5072063;28;20182;-44
2023/10/22 06:25:45;;;;;;;13.80;5.13;;;;;;;19.27;69.78;94598.72;5071641;28;20205;-44
2023/10/22 06:28:12;;;;;;;9.13;4.93;;;;;;;19.32;69.77;94616.28;5071126;28;20720;-45
2023/10/22 06:30:39;;;;;;;11.47;4.73;;;;;;;19.24;70.19;94606.09;5071345;28;20179;-45
2023/10/22 06:33:07;;;;;;;15.50;5.00;;;;;;;19.22;70.49;94600.31;5071354;28;20224;-45
2023/10/22 06:35:34;;;;;;;11.27;4.80;;;;;;;19.42;70.34;94626.31;5070973;28;20569;-45
2023/10/22 06:38:01;;;;;;;15.40;5.60;;;;;;;19.40;70.03;94626.50;5071328;28;20190;-44
2023/10/22 06:40:28;;;;;;;8.27;5.40;;;;;;;19.49;69.76;94643.50;5070635;28;20603;-45
2023/10/22 06:42:54;;;;;;;12.53;5.10;;;;;;;19.52;69.71;94629.34;5070943;28;20642;-43
2023/10/22 06:45:21;;;;;;;13.33;5.33;;;;;;;19.63;70.04;94625.41;5070560;28;20206;-44
2023/10/22 06:47:48;;;;;;;12.80;5.03;;;;;;;19.63;69.61;94615.03;5071145;28;20213;-45
2023/10/22 06:50:16;;;;;;;10.63;4.40;;;;;;;19.77;69.80;94633.06;5070391;28;20196;-44
2023/10/22 06:52:43;;;;;;;7.63;4.73;;;;;;;19.85;69.39;94624.28;5070983;28;20213;-44
2023/10/22 06:55:10;;;;;;;15.27;5.00;;;;;;;19.95;69.39;94626.50;5070609;28;20230;-44
2023/10/22 06:57:38;;;;;;;18.47;5.40;;;;;;;20.00;69.08;94630.09;5070888;28;20187;-45
2023/10/22 07:00:07;;;;;;;11.43;5.03;;;;;;;20.05;68.81;94616.53;5070693;28;20244;-45
2023/10/22 07:02:34;;;;;;;11.82;4.38;;;;;;;20.19;68.59;94625.94;5070691;28;20198;-45
2023/10/22 07:05:02;;;;;;;15.10;6.20;;;;;;;20.20;67.93;94608.53;5070429;28;20190;-44
2023/10/22 07:07:30;;;;;;;13.37;4.33;;;;;;;20.26;67.39;94597.38;5070530;28;20587;-44
2023/10/22 07:09:57;;;;;;;10.73;5.25;;;;;;;20.55;66.82;94645.53;5070702;28;20190;-45
2023/10/22 07:12:25;;;;;;;10.00;4.78;;;;;;;20.68;66.28;94629.16;5070091;28;20625;-44
2023/10/22 07:14:52;;;;;;;13.90;5.15;;;;;;;20.82;65.68;94625.56;5070671;28;20577;-45
2023/10/22 07:17:18;;;;;;;14.13;5.60;;;;;;;20.96;65.19;94629.72;5070148;28;20190;-44
2023/10/22 07:19:45;;;;;;;9.63;4.78;;;;;;;21.13;64.91;94630.06;5070261;28;20205;-44
2023/10/22 07:22:12;;;;;;;14.93;5.68;;;;;;;21.37;64.07;94636.44;5070042;28;20195;-44
2023/10/22 07:24:40;;;;;;;13.02;5.63;;;;;;;21.50;63.79;94631.19;5070587;28;20518;-45
2023/10/22 07:27:08;;;;;;;13.88;6.53;;;;;;;21.57;63.38;94619.94;5069797;28;20701;-44
2023/10/22 07:29:35;;;;;;;15.40;6.60;;;;;;;21.64;63.14;94618.91;5070141;28;20183;-46
2023/10/22 07:32:02;;;;;;;16.40;6.97;;;;;;;21.69;63.11;94626.09;5069307;28;20187;-44
2023/10/22 07:34:30;;;;;;;15.75;7.00;;;;;;;21.72;62.87;94623.09;5069711;28;20221;-44
2023/10/22 07:36:57;;;;;;;13.98;7.05;;;;;;;21.78;62.96;94619.66;5070139;28;20200;-45
2023/10/22 07:39:23;;;;;;;13.65;6.50;;;;;;;21.74;62.82;94626.28;5070050;28;20194;-43
2023/10/22 07:41:52;;;;;;;11.93;5.88;;;;;;;21.79;62.91;94626.44;5070064;28;20324;-44
2023/10/22 07:44:19;;;;;;;11.73;6.35;;;;;;;21.83;62.82;94624.22;5070104;28;20277;-44
2023/10/22 07:46:45;;;;;;;16.98;6.80;;;;;;;21.89;62.37;94625.97;5070035;28;20615;-44
2023/10/22 07:49:12;;;;;;;15.55;7.03;;;;;;;21.91;62.07;94627.38;5069735;28;20663;-45
2023/10/22 07:51:39;;;;;;;22.27;7.45;;;;;;;21.95;61.86;94623.34;5070175;28;20190;-44
2023/10/22 07:54:07;;;;;;;9.75;6.18;;;;;;;22.02;61.75;94612.88;5069563;28;20276;-44
2023/10/22 07:56:34;;;;;;;12.95;5.78;;;;;;;22.08;61.65;94601.63;5069749;28;20194;-45
2023/10/22 07:59:03;;;;;;;13.50;5.55;;;;;;;22.21;61.47;94619.00;5069917;28;20237;-44
2023/10/22 08:01:29;;;;;;;14.95;6.15;;;;;;;22.31;61.04;94614.13;5069520;28;20638;-45
2023/10/22 08:03:56;;;;;;;14.05;6.10;;;;;;;22.45;60.61;94613.03;5069369;28;20187;-46
2023/10/22 08:06:23;;;;;;;19.33;6.53;;;;;;;22.63;60.39;94604.44;5069534;28;20614;-46
2023/10/22 08:08:54;;;;;;;11.57;5.60;;;;;;;22.81;59.69;94613.31;5069407;28;20305;-45
2023/10/22 08:11:22;;;;;;;11.02;4.88;;;;;;;22.99;59.12;94601.09;5069304;28;20645;-45
2023/10/22 08:13:49;;;;;;;14.48;5.68;;;;;;;23.22;57.99;94597.03;5069326;28;20305;-44
2023/10/22 08:16:17;;;;;;;14.70;5.40;;;;;;;23.45;57.61;94594.56;5069425;28;20201;-44
2023/10/22 08:18:44;;;;;;;14.07;5.13;;;;;;;23.63;57.08;94585.91;5069434;28;20267;-45
2023/10/22 08:21:11;;;;;;;9.73;5.07;;;;;;;23.84;56.01;94586.47;5069680;28;20693;-44
2023/10/22 08:23:38;;;;;;;8.35;4.15;;;;;;;23.93;55.71;94587.75;5073117;28;20209;-45
2023/10/22 08:26:06;;;;;;;14.98;5.15;;;;;;;23.99;55.61;94579.00;5069520;28;20194;-45
2023/10/22 08:28:34;;;;;;;12.93;4.80;;;;;;;24.06;54.94;94581.53;5069536;28;20230;-45
2023/10/22 08:31:04;;;;;;;10.98;5.25;;;;;;;24.10;55.25;94574.84;5067782;28;20194;-44
2023/10/22 08:33:34;;;;;;;17.55;4.80;;;;;;;24.15;55.13;94565.31;5069412;28;20301;-45
2023/10/22 08:36:05;;;;;;;10.88;4.65;;;;;;;24.23;54.81;94570.19;5069306;28;20653;-44
2023/10/22 08:38:32;;;;;;;12.65;4.65;;;;;;;24.40;54.22;94577.41;5069389;28;20543;-44
2023/10/22 08:41:01;;;;;;;11.05;4.57;;;;;;;24.54;53.86;94576.16;5067810;28;20186;-44
2023/10/22 08:43:33;;;;;;;12.02;4.47;;;;;;;24.59;53.37;94552.75;5069891;28;20208;-44
2023/10/22 08:46:02;;;;;;;14.65;4.22;;;;;;;24.93;52.34;94568.66;5073416;28;20316;-45
2023/10/22 08:48:34;;;;;;;15.77;4.70;;;;;;;25.13;51.55;94560.44;5073511;28;20190;-43
2023/10/22 08:51:02;;;;;;;10.00;3.67;;;;;;;25.32;50.73;94568.94;5072017;28;20190;-44
2023/10/22 08:53:29;;;;;;;14.30;4.22;;;;;;;25.42;50.19;94553.41;5073232;28;20705;-45
2023/10/22 08:55:58;;;;;;;20.38;5.07;;;;;;;25.49;49.68;94567.97;5071815;28;20200;-45
2023/10/22 08:58:27;;;;;;;15.95;4.10;;;;;;;25.66;48.93;94561.97;5073306;28;20190;-45
2023/10/22 09:00:55;;;;;;;11.10;3.72;;;;;;;25.72;47.88;94553.97;5072845;28;20237;-44
2023/10/22 09:03:24;;;;;;;8.32;4.00;;;;;;;25.81;47.69;94543.13;5071743;28;20225;-44
2023/10/22 09:05:54;;;;;;;13.05;3.33;;;;;;;25.88;47.39;94549.81;5073319;28;20209;-44
2023/10/22 09:08:20;;;;;;;8.23;3.85;;;;;;;25.94;46.97;94542.84;5073208;28;20528;-46
2023/10/22 09:10:48;;;;;;;9.43;3.53;;;;;;;25.90;46.61;94542.50;5072720;28;20197;-44
2023/10/22 09:13:20;;;;;;;11.90;4.43;;;;;;;25.85;46.21;94518.84;5072696;28;20217;-44
2023/10/22 09:15:48;;;;;;;9.57;3.55;;;;;;;25.84;46.24;94527.75;5071394;28;20213;-44
2023/10/22 09:18:19;;;;;;;8.27;3.40;;;;;;;25.91;46.43;94536.25;5072731;28;20626;-45
2023/10/22 09:20:48;;;;;;;11.63;4.07;;;;;;;25.88;46.34;94523.63;5073673;28;20673;-46
2023/10/22 09:23:20;;;;;;;9.68;3.63;;;;;;;26.08;45.30;94538.91;5074970;28;20187;-45
2023/10/22 09:25:51;;;;;;;8.88;3.53;;;;;;;26.16;45.04;94546.34;5082632;28;20275;-45
2023/10/22 09:28:21;;;;;;;14.15;4.07;;;;;;;26.08;45.12;94519.72;5074872;28;20248;-44
2023/10/22 09:30:57;;;;;;;13.07;3.65;;;;;;;26.28;43.81;94544.44;5072931;28;20279;-44
2023/10/22 09:33:32;;;;;;;8.30;3.05;;;;;;;26.22;43.61;94537.53;5072402;28;20257;-47
2023/10/22 09:36:04;;;;;;;10.02;3.20;;;;;;;26.30;43.24;94532.94;5072626;28;20268;-44
2023/10/22 09:38:48;;;;;;;14.43;4.38;;;;;;;26.30;42.46;94535.56;5071246;28;20252;-45
2023/10/22 09:41:26;;;;;;;11.82;3.85;;;;;;;26.35;42.87;94530.38;5072218;28;20198;-45
2023/10/22 09:43:53;;;;;;;14.27;4.10;;;;;;;26.43;42.97;94532.59;5072349;28;20186;-44
2023/10/22 09:46:22;;;;;;;10.70;3.88;;;;;;;26.46;42.46;94517.19;5072251;28;20335;-44
2023/10/22 09:48:50;;;;;;;9.27;3.90;;;;;;;26.54;41.66;94491.59;5071018;28;20186;-43
2023/10/22 09:51:18;;;;;;;13.82;3.67;;;;;;;26.40;42.26;94505.03;5071889;28;20585;-44
2023/10/22 09:53:56;;;;;;;16.98;5.22;;;;;;;26.38;41.89;94501.03;5072280;28;20226;-44
2023/10/22 09:56:25;;;;;;;14.95;4.38;;;;;;;26.45;41.19;94496.47;5071036;28;20194;-45
2023/10/22 09:58:58;;;;;;;21.02;4.43;;;;;;;26.37;41.56;94478.47;5071977;28;20194;-45
2023/10/22 10:01:26;;;;;;;19.50;4.35;;;;;;;26.50;41.80;94489.44;5071555;28;20195;-45
2023/10/22 10:03:55;;;;;;;17.63;5.15;;;;;;;26.59;41.34;94497.69;5071813;28;20229;-45
2023/10/22 10:06:23;;;;;;;15.38;4.45;;;;;;;26.69;41.84;94492.59;5071694;28;20636;-45
2023/10/22 10:08:52;;;;;;;21.38;4.40;;;;;;;26.73;41.05;94477.19;5071805;28;20186;-44
2023/10/22 10:11:19;;;;;;;13.40;4.45;;;;;;;26.73;41.69;94474.56;5071435;28;20201;-44
2023/10/22 10:13:46;;;;;;;16.65;5.05;;;;;;;26.75;41.29;94478.50;5071418;28;20617;-45
2023/10/22 10:16:13;;;;;;;21.23;5.35;;;;;;;26.79;41.35;94491.16;5071422;28;20194;-44
2023/10/22 10:19:08;;;;;;;10.48;3.95;;;;;;;26.90;41.52;94474.47;5071796;28;20189;-45
2023/10/22 10:21:44;;;;;;;14.70;4.55;;;;;;;26.93;40.78;94490.53;5071173;28;20246;-44
2023/10/22 10:24:20;;;;;;;11.32;4.50;;;;;;;26.88;40.56;94476.56;5071589;28;20281;-44
2023/10/22 10:26:50;;;;;;;17.63;4.32;;;;;;;26.98;40.51;94477.47;5071103;28;20305;-44
2023/10/22 10:29:18;;;;;;;15.00;5.07;;;;;;;26.97;40.38;94485.59;5071551;28;20251;-45
2023/10/22 10:31:47;;;;;;;17.00;4.60;;;;;;;27.00;40.30;94483.28;5071585;28;20186;-45
2023/10/22 10:34:33;;;;;;;19.40;4.78;;;;;;;27.00;41.09;94454.41;5069777;28;20229;-44
2023/10/22 10:37:11;;;;;;;15.63;3.97;;;;;;;27.07;41.10;94443.69;5071270;28;20202;-45
2023/10/22 10:39:42;;;;;;;15.55;5.03;;;;;;;26.91;41.38;94447.22;5070922;28;20215;-44
2023/10/22 10:42:09;;;;;;;14.20;4.88;;;;;;;27.08;40.74;94460.25;5071270;28;20292;-45
2023/10/22 10:45:08;;;;;;;15.60;4.63;;;;;;;27.09;40.91;94448.72;5070766;28;20190;-44
2023/10/22 10:47:39;;;;;;;20.48;4.50;;;;;;;27.11;40.95;94452.69;5070768;28;20697;-45
2023/10/22 10:50:10;;;;;;;18.67;5.18;;;;;;;27.08;41.30;94447.13;5071053;28;20316;-44
2023/10/22 10:52:58;;;;;;;15.38;4.50;;;;;;;27.11;41.17;94450.06;5070972;28;20210;-44
2023/10/22 10:55:33;;;;;;;14.95;4.47;;;;;;;27.13;40.95;94445.38;5070623;28;20303;-44
2023/10/22 10:58:01;;;;;;;18.90;4.75;;;;;;;27.09;40.97;94444.28;5070275;28;20247;-46
2023/10/22 11:00:30;;;;;;;20.63;4.72;;;;;;;27.17;40.47;94445.69;5071172;28;20206;-44
2023/10/22 11:02:58;;;;;;;18.33;5.32;;;;;;;27.18;40.16;94455.13;5070411;28;20194;-44
2023/10/22 11:05:37;;;;;;;27.58;5.82;;;;;;;27.13;41.03;94458.50;5070777;28;20270;-45
2023/10/22 11:08:05;;;;;;;21.38;4.68;;;;;;;27.18;40.82;94448.06;5069278;28;20193;-45
2023/10/22 11:10:34;;;;;;;16.30;4.72;;;;;;;27.13;40.98;94444.59;5070161;28;20657;-44
2023/10/22 11:13:06;;;;;;;18.67;5.38;;;;;;;27.08;41.29;94441.88;5070213;28;20246;-45
2023/10/22 11:15:35;;;;;;;25.73;5.00;;;;;;;27.15;41.59;94463.50;5070665;28;20381;-45
2023/10/22 11:18:03;;;;;;;13.68;4.68;;;;;;;27.19;40.30;94451.47;5070441;28;20194;-45
2023/10/22 11:20:30;;;;;;;19.42;5.10;;;;;;;27.23;41.03;94442.06;5070414;28;20669;-45
2023/10/22 11:22:56;;;;;;;18.00;5.65;;;;;;;27.33;41.04;94449.22;5070285;28;20641;-45
2023/10/22 11:25:24;;;;;;;23.38;4.95;;;;;;;27.35;40.90;94455.03;5070372;28;20228;-45
2023/10/22 11:27:52;;;;;;;20.75;5.03;;;;;;;27.25;41.30;94434.75;5070192;28;20246;-45
2023/10/22 11:30:36;;;;;;;15.30;5.32;;;;;;;27.21;41.23;94416.06;5070190;28;20179;-45
2023/10/22 11:33:04;;;;;;;18.50;4.95;;;;;;;27.33;41.65;94447.44;5070188;28;20194;-45